Pointe-Aux-Trembles, Canada
Current Conditions -  °F | °C
As of 8:00 PM on Friday 28 Nov 2014 (Local Time) from CYHU Reporting Station
Clear Clear  
Wind Chill: 13°   Ceiling: Unl
Heat Index: 21°   Visibility: 9mi
Dew Point: 10°   Wind: 7mph
Humidity: 63%   Direction: 280°W
Pressure: 30.18"   Gusts: NA
Location:  45.65°N, 73.48°W
Report Text: CYHU 290100Z AUTO 28006KT 9SM CLR M06/M12 A3018 RMK SLP221
Loading
Personal Weather Stations






























Interactive Weather Map New forecast layout! Learn more

10-Day Weather Forecast

Advertisements
Track Severe Weather on mobile